createdAt,value
2019-02-18T00:01:29.709Z,69.30
2019-02-18T00:04:01.063Z,69.20
2019-02-18T00:06:37.575Z,69.20
2019-02-18T00:09:07.619Z,69.30
2019-02-18T00:11:39.434Z,69.30
2019-02-18T00:14:09.163Z,69.20
2019-02-18T00:16:39.692Z,69.20
2019-02-18T00:19:17.982Z,69.20
2019-02-18T00:21:51.867Z,69.30
2019-02-18T00:24:25.076Z,69.30
2019-02-18T00:26:56.049Z,69.20
2019-02-18T00:29:29.740Z,69.40
2019-02-18T00:32:00.146Z,69.40
2019-02-18T00:34:34.225Z,69.40
2019-02-18T00:37:04.161Z,69.50
2019-02-18T00:39:34.954Z,69.30
2019-02-18T00:42:06.107Z,69.40
2019-02-18T00:44:38.705Z,69.50
2019-02-18T00:47:09.006Z,69.60
2019-02-18T00:49:44.320Z,69.60
2019-02-18T00:52:20.540Z,69.60
2019-02-18T00:54:50.389Z,69.60
2019-02-18T00:57:22.658Z,69.60
2019-02-18T00:59:53.315Z,69.70
2019-02-18T01:02:31.410Z,69.70
2019-02-18T01:05:02.765Z,69.80
2019-02-18T01:07:35.194Z,69.90
2019-02-18T01:10:06.543Z,70.00
2019-02-18T01:12:51.955Z,70.00
2019-02-18T01:15:35.759Z,70.00
2019-02-18T01:18:07.598Z,70.20
2019-02-18T01:20:40.841Z,70.20
2019-02-18T01:23:11.436Z,70.80
2019-02-18T01:25:41.740Z,70.30
2019-02-18T01:28:11.015Z,70.50
2019-02-18T01:30:43.117Z,70.50
2019-02-18T01:33:14.035Z,70.60
2019-02-18T01:35:44.600Z,70.70
2019-02-18T01:38:17.499Z,70.70
2019-02-18T01:40:47.540Z,71.00
2019-02-18T01:43:17.468Z,71.00
2019-02-18T01:45:49.336Z,71.00
2019-02-18T01:48:18.806Z,71.10
2019-02-18T01:50:48.482Z,71.20
2019-02-18T01:53:20.852Z,71.30
2019-02-18T01:55:53.665Z,71.40
2019-02-18T01:58:27.557Z,71.50
2019-02-18T02:01:05.382Z,71.40
2019-02-18T02:03:48.044Z,71.50
2019-02-18T02:06:30.639Z,71.40
2019-02-18T02:09:01.920Z,71.50
2019-02-18T02:11:34.983Z,71.40
2019-02-18T02:14:06.330Z,71.40
2019-02-18T02:16:35.533Z,71.40
2019-02-18T02:19:06.214Z,71.40
2019-02-18T02:21:37.383Z,71.50
2019-02-18T02:24:41.774Z,71.40
2019-02-18T02:27:13.913Z,71.40
2019-02-18T02:29:43.621Z,71.30
2019-02-18T02:32:13.517Z,71.40
2019-02-18T02:34:43.298Z,71.50
2019-02-18T02:37:14.280Z,71.50
2019-02-18T02:39:46.745Z,71.50
2019-02-18T02:42:17.309Z,71.40
2019-02-18T02:44:53.661Z,71.40
2019-02-18T02:47:24.237Z,71.40
2019-02-18T02:49:56.815Z,71.30
2019-02-18T02:52:41.045Z,71.30
2019-02-18T02:55:16.640Z,71.30
2019-02-18T02:57:59.578Z,71.20
2019-02-18T03:00:40.360Z,71.20
2019-02-18T03:03:25.847Z,71.20
2019-02-18T03:09:19.143Z,71.20
2019-02-18T03:12:48.544Z,71.10
2019-02-18T03:16:01.323Z,71.20
2019-02-18T03:18:55.622Z,71.10
2019-02-18T03:21:52.080Z,70.90
2019-02-18T03:24:55.278Z,71.00
2019-02-18T03:27:57.413Z,71.00
2019-02-18T03:30:55.215Z,71.00
2019-02-18T03:34:01.879Z,71.10
2019-02-18T03:36:59.273Z,71.00
2019-02-18T03:39:52.098Z,71.10
2019-02-18T03:42:44.709Z,70.90
2019-02-18T03:45:19.864Z,70.70
2019-02-18T03:48:14.821Z,70.70
2019-02-18T03:50:48.630Z,70.90
2019-02-18T03:53:39.430Z,70.80
2019-02-18T03:56:13.244Z,70.90
2019-02-18T03:58:44.336Z,70.90
2019-02-18T04:01:15.716Z,71.00
2019-02-18T04:03:45.701Z,71.00
2019-02-18T04:06:18.472Z,70.90
2019-02-18T04:08:48.301Z,70.80
2019-02-18T04:11:22.917Z,70.60
2019-02-18T04:13:59.030Z,70.70
2019-02-18T04:16:36.642Z,70.80
2019-02-18T04:19:28.131Z,70.90
2019-02-18T04:22:00.775Z,70.60
2019-02-18T04:24:31.913Z,70.70
2019-02-18T04:27:07.047Z,70.70
2019-02-18T04:30:21.374Z,70.60
2019-02-18T04:37:43.897Z,70.60
2019-02-18T04:40:22.139Z,70.60
2019-02-18T04:42:58.300Z,70.40
2019-02-18T04:45:35.939Z,70.40
2019-02-18T04:48:11.708Z,70.40
2019-02-18T04:50:45.297Z,70.30
2019-02-18T04:53:36.130Z,70.40
2019-02-18T04:56:07.189Z,70.40
2019-02-18T04:58:37.550Z,70.30
2019-02-18T05:01:10.173Z,70.40
2019-02-18T05:03:42.247Z,70.40
2019-02-18T05:06:13.869Z,70.40
2019-02-18T05:08:46.824Z,70.10
2019-02-18T05:11:19.291Z,70.20
2019-02-18T05:13:54.494Z,70.10
2019-02-18T05:16:27.334Z,70.20
2019-02-18T05:18:59.907Z,70.10
2019-02-18T05:21:37.975Z,70.10
2019-02-18T05:24:27.917Z,70.20
2019-02-18T05:27:00.045Z,70.10
2019-02-18T05:29:37.583Z,70.00
2019-02-18T05:32:11.623Z,70.00
2019-02-18T05:38:52.935Z,70.20
2019-02-18T05:41:42.983Z,70.00
2019-02-18T05:44:13.807Z,70.00
2019-02-18T05:46:48.361Z,70.00
2019-02-18T05:49:21.050Z,70.10
2019-02-18T06:00:51.344Z,70.00
2019-02-18T06:14:25.166Z,69.80
2019-02-18T06:48:38.464Z,69.50
2019-02-18T06:51:12.736Z,69.40
2019-02-18T06:53:50.110Z,69.30
2019-02-18T06:56:53.669Z,69.40
2019-02-18T07:00:05.135Z,69.40
2019-02-18T07:15:15.848Z,69.10
2019-02-18T07:17:55.308Z,69.00
2019-02-18T07:20:25.219Z,69.10
2019-02-18T07:23:00.423Z,69.10
2019-02-18T07:25:40.102Z,69.00
2019-02-18T07:28:09.332Z,68.90
2019-02-18T07:30:39.830Z,68.90
2019-02-18T07:33:10.490Z,68.80
2019-02-18T07:35:45.553Z,68.70
2019-02-18T07:38:15.209Z,68.80
2019-02-18T07:40:44.789Z,68.60
2019-02-18T07:43:14.076Z,68.70
2019-02-18T07:45:43.551Z,68.70
2019-02-18T07:48:13.469Z,68.50
2019-02-18T07:50:44.310Z,68.40
2019-02-18T07:53:14.414Z,68.40
2019-02-18T07:55:43.503Z,68.20
2019-02-18T07:58:13.823Z,68.20
2019-02-18T08:00:42.843Z,68.00
2019-02-18T08:03:12.767Z,68.10
2019-02-18T08:05:42.645Z,68.00
2019-02-18T08:08:11.867Z,67.90
2019-02-18T08:10:45.245Z,67.90
2019-02-18T08:13:14.198Z,67.80
2019-02-18T08:15:43.689Z,67.70
2019-02-18T08:18:12.765Z,67.50
2019-02-18T08:20:42.346Z,67.40
2019-02-18T08:23:11.561Z,67.40
2019-02-18T08:25:40.893Z,67.30
2019-02-18T08:28:10.159Z,67.10
2019-02-18T08:30:39.092Z,67.00
2019-02-18T08:33:09.334Z,66.80
2019-02-18T08:35:38.405Z,66.60
2019-02-18T08:38:07.843Z,66.40
2019-02-18T08:40:38.499Z,66.40
2019-02-18T08:43:08.314Z,66.30
2019-02-18T08:45:41.224Z,66.10
2019-02-18T08:48:12.251Z,66.20
2019-02-18T08:50:41.326Z,66.10
2019-02-18T08:53:10.469Z,66.00
2019-02-18T08:55:40.113Z,66.00
2019-02-18T08:58:09.336Z,65.80
2019-02-18T09:00:38.947Z,65.70
2019-02-18T09:03:08.971Z,65.70
2019-02-18T09:05:43.510Z,65.50
2019-02-18T09:08:12.854Z,65.40
2019-02-18T09:10:44.275Z,65.80
2019-02-18T09:13:21.858Z,65.10
2019-02-18T09:15:59.712Z,65.10
2019-02-18T09:18:21.875Z,64.90
2019-02-18T09:20:51.929Z,64.90
2019-02-18T09:23:29.513Z,64.90
2019-02-18T09:26:04.882Z,64.60
2019-02-18T09:28:34.225Z,64.60
2019-02-18T09:31:03.654Z,64.50
2019-02-18T09:33:32.734Z,64.40
2019-02-18T09:36:02.851Z,64.50
2019-02-18T09:38:34.912Z,64.40
2019-02-18T09:41:05.787Z,64.30
2019-02-18T09:44:30.172Z,64.10
2019-02-18T09:47:00.359Z,64.10
2019-02-18T09:49:31.132Z,63.80
2019-02-18T09:52:00.344Z,63.50
2019-02-18T09:54:41.087Z,63.50
2019-02-18T09:57:12.974Z,63.50
2019-02-18T09:59:47.957Z,63.10
2019-02-18T10:02:21.162Z,63.00
2019-02-18T10:04:51.350Z,62.80
2019-02-18T10:07:20.839Z,62.70
2019-02-18T10:09:53.896Z,62.50
2019-02-18T10:12:24.641Z,62.50
2019-02-18T10:14:54.654Z,62.40
2019-02-18T10:17:24.063Z,62.10
2019-02-18T10:19:55.283Z,61.90
2019-02-18T10:22:26.529Z,61.60
2019-02-18T10:25:07.100Z,61.50
2019-02-18T10:27:37.473Z,61.40
2019-02-18T10:30:07.316Z,61.30
2019-02-18T10:32:36.669Z,61.20
2019-02-18T10:35:08.224Z,61.10
2019-02-18T10:37:40.570Z,61.00
2019-02-18T10:40:10.788Z,60.70
2019-02-18T10:42:40.323Z,60.70
2019-02-18T10:45:14.679Z,60.50
2019-02-18T10:47:46.270Z,60.50
2019-02-18T10:53:09.744Z,60.20
2019-02-18T10:55:40.403Z,60.00
2019-02-18T10:58:11.210Z,60.00
2019-02-18T11:00:43.711Z,59.60
2019-02-18T11:03:14.740Z,59.50
2019-02-18T11:08:26.984Z,59.00
2019-02-18T11:10:57.359Z,58.80
2019-02-18T11:13:39.783Z,58.70
2019-02-18T11:16:46.117Z,58.60
2019-02-18T11:19:20.720Z,58.30
2019-02-18T11:21:53.561Z,58.10
2019-02-18T11:24:39.529Z,57.80
2019-02-18T11:27:12.530Z,57.50
2019-02-18T11:29:55.754Z,57.50
2019-02-18T11:35:01.731Z,57.00
2019-02-18T11:37:39.749Z,56.60
2019-02-18T11:40:21.838Z,56.80
2019-02-18T11:46:12.247Z,56.20
2019-02-18T11:52:07.833Z,55.00
2019-02-18T11:54:58.378Z,55.00
2019-02-18T11:57:39.735Z,54.80
2019-02-18T12:00:41.663Z,54.80
2019-02-18T12:04:22.321Z,54.70
2019-02-18T12:06:54.016Z,54.70
2019-02-18T12:13:23.527Z,54.60
2019-02-18T12:19:12.772Z,54.60
2019-02-18T12:21:44.828Z,54.20
2019-02-18T12:24:24.492Z,54.00
2019-02-18T12:26:57.176Z,53.90
2019-02-18T12:29:29.025Z,53.80
2019-02-18T12:32:00.506Z,53.80
2019-02-18T12:34:32.353Z,53.50
2019-02-18T12:37:12.536Z,53.40
2019-02-18T12:39:43.434Z,53.30
2019-02-18T12:42:21.567Z,53.30
2019-02-18T12:45:23.434Z,53.00
2019-02-18T12:47:57.749Z,53.00
2019-02-18T12:50:41.375Z,53.30
2019-02-18T12:53:33.398Z,53.30
2019-02-18T12:56:33.390Z,53.50
2019-02-18T12:59:29.844Z,53.80
2019-02-18T13:02:03.471Z,53.90
2019-02-18T13:04:45.735Z,54.10
2019-02-18T13:07:19.851Z,54.30
2019-02-18T13:10:05.495Z,54.50
2019-02-18T13:12:45.539Z,54.20
2019-02-18T13:15:32.368Z,53.70
2019-02-18T13:20:42.218Z,53.20
2019-02-18T13:23:12.791Z,53.00
2019-02-18T13:26:00.723Z,53.00
2019-02-18T13:28:34.961Z,52.80
2019-02-18T13:31:05.909Z,52.70
2019-02-18T13:33:46.138Z,52.50
2019-02-18T13:36:18.731Z,52.60
2019-02-18T13:38:48.732Z,52.80
2019-02-18T13:41:17.873Z,53.00
2019-02-18T13:43:47.152Z,53.10
2019-02-18T13:46:17.215Z,53.30
2019-02-18T13:48:46.338Z,53.30
2019-02-18T13:51:23.862Z,53.30
2019-02-18T13:53:50.906Z,53.30
2019-02-18T13:56:25.711Z,53.30
2019-02-18T13:58:54.681Z,53.40
2019-02-18T14:01:24.938Z,53.40
2019-02-18T14:03:54.239Z,53.50
2019-02-18T14:06:23.531Z,53.70
2019-02-18T14:08:52.677Z,53.80
2019-02-18T14:11:22.258Z,53.90
2019-02-18T14:13:51.274Z,54.10
2019-02-18T14:16:31.839Z,54.10
2019-02-18T14:19:01.403Z,54.20
2019-02-18T14:21:31.711Z,54.30
2019-02-18T14:24:01.543Z,54.50
2019-02-18T14:26:32.273Z,54.60
2019-02-18T14:29:01.938Z,54.70
2019-02-18T14:31:33.872Z,54.80
2019-02-18T14:34:02.929Z,54.90
2019-02-18T14:36:32.769Z,55.00
2019-02-18T14:39:02.160Z,55.10
2019-02-18T14:41:31.382Z,55.20
2019-02-18T14:44:05.713Z,55.30
2019-02-18T14:46:37.833Z,55.40
2019-02-18T14:49:08.029Z,55.60
2019-02-18T14:51:37.512Z,56.40
2019-02-18T14:54:06.658Z,56.80
2019-02-18T14:56:37.301Z,57.00
2019-02-18T14:59:07.093Z,57.10
2019-02-18T15:01:36.337Z,57.30
2019-02-18T15:04:05.604Z,57.40
2019-02-18T15:06:49.055Z,57.50
2019-02-18T15:09:19.261Z,57.70
2019-02-18T15:11:50.644Z,57.70
2019-02-18T15:14:21.819Z,57.90
2019-02-18T15:16:53.510Z,57.90
2019-02-18T15:19:22.576Z,58.10
2019-02-18T15:21:52.590Z,58.30
2019-02-18T15:24:23.398Z,58.30
2019-02-18T15:26:52.422Z,58.40
2019-02-18T15:29:22.451Z,58.60
2019-02-18T15:31:52.867Z,58.60
2019-02-18T15:34:23.050Z,58.80
2019-02-18T15:36:56.528Z,59.00
2019-02-18T15:39:25.717Z,59.00
2019-02-18T15:41:55.602Z,59.00
2019-02-18T15:44:28.029Z,59.10
2019-02-18T15:46:58.270Z,59.20
2019-02-18T15:49:27.193Z,59.30
2019-02-18T15:52:09.430Z,59.40
2019-02-18T15:54:39.346Z,59.60
2019-02-18T15:57:09.837Z,59.70
2019-02-18T15:59:45.294Z,59.80
2019-02-18T16:02:14.859Z,59.90
2019-02-18T16:04:51.083Z,60.10
2019-02-18T16:07:20.553Z,60.20
2019-02-18T16:09:54.551Z,60.40
2019-02-18T16:12:23.871Z,60.50
2019-02-18T16:14:58.528Z,60.70
2019-02-18T16:17:28.231Z,60.80
2019-02-18T16:19:57.969Z,60.90
2019-02-18T16:22:29.468Z,61.00
2019-02-18T16:25:01.032Z,61.00
2019-02-18T16:27:30.053Z,61.10
2019-02-18T16:29:59.132Z,61.10
2019-02-18T16:32:30.179Z,61.40
2019-02-18T16:34:59.661Z,61.40
2019-02-18T16:37:29.345Z,61.50
2019-02-18T16:40:00.942Z,61.60
2019-02-18T16:42:35.724Z,61.80
2019-02-18T16:45:05.895Z,61.80
2019-02-18T16:47:34.935Z,62.00
2019-02-18T16:50:04.290Z,62.00
2019-02-18T16:52:34.283Z,62.00
2019-02-18T16:55:03.771Z,62.10
2019-02-18T16:57:33.886Z,62.30
2019-02-18T17:00:03.800Z,62.40
2019-02-18T17:02:32.733Z,62.50
2019-02-18T17:05:05.585Z,62.40
2019-02-18T17:07:42.409Z,62.60
2019-02-18T17:10:11.372Z,62.70
2019-02-18T17:12:40.509Z,62.80
2019-02-18T17:15:13.806Z,62.90
2019-02-18T17:17:50.104Z,63.00
2019-02-18T17:20:19.245Z,63.10
2019-02-18T17:22:48.545Z,63.20
2019-02-18T17:25:23.141Z,63.30
2019-02-18T17:27:52.136Z,63.50
2019-02-18T17:30:25.494Z,63.50
2019-02-18T17:32:59.122Z,63.60
2019-02-18T17:35:30.042Z,63.70
2019-02-18T17:37:59.141Z,63.70
2019-02-18T17:40:28.597Z,63.90
2019-02-18T17:42:59.446Z,64.00
2019-02-18T17:45:34.042Z,64.00
2019-02-18T17:48:04.983Z,64.10
2019-02-18T17:50:34.034Z,64.20
2019-02-18T17:53:03.359Z,64.20
2019-02-18T17:55:32.422Z,64.30
2019-02-18T17:58:01.689Z,64.50
2019-02-18T18:00:32.967Z,64.60
2019-02-18T18:03:01.876Z,64.60
2019-02-18T18:05:36.230Z,64.60
2019-02-18T18:08:05.401Z,64.70
2019-02-18T18:10:35.168Z,64.70
2019-02-18T18:13:04.407Z,64.80
2019-02-18T18:15:34.999Z,64.70
2019-02-18T18:18:05.977Z,64.80
2019-02-18T18:20:36.120Z,64.90
2019-02-18T18:23:09.931Z,64.90
2019-02-18T18:25:41.613Z,64.90
2019-02-18T18:28:11.096Z,64.90
2019-02-18T18:30:40.097Z,64.70
2019-02-18T18:33:09.321Z,64.90
2019-02-18T18:35:38.797Z,65.00
2019-02-18T18:38:08.874Z,65.00
2019-02-18T18:40:37.915Z,65.00
2019-02-18T18:43:06.987Z,65.00
2019-02-18T18:45:42.903Z,65.00
2019-02-18T18:48:12.182Z,65.00
2019-02-18T18:50:41.529Z,65.00
2019-02-18T18:53:13.249Z,65.00
2019-02-18T18:55:49.564Z,65.10
2019-02-18T18:58:18.989Z,65.30
2019-02-18T19:00:48.335Z,65.00
2019-02-18T19:03:17.339Z,65.00
2019-02-18T19:05:46.351Z,65.10
2019-02-18T19:08:15.445Z,65.20
2019-02-18T19:10:44.419Z,65.20
2019-02-18T19:13:13.328Z,65.10
2019-02-18T19:15:49.489Z,65.20
2019-02-18T19:18:12.979Z,65.20
2019-02-18T19:20:41.953Z,65.20
2019-02-18T19:23:11.045Z,65.10
2019-02-18T19:25:39.929Z,65.10
2019-02-18T19:28:08.873Z,65.20
2019-02-18T19:30:37.849Z,65.20
2019-02-18T19:33:06.909Z,65.30
2019-02-18T19:35:36.096Z,65.40
2019-02-18T19:38:05.227Z,65.40
2019-02-18T19:40:34.175Z,65.60
2019-02-18T19:43:03.515Z,65.60
2019-02-18T19:45:32.658Z,65.60
2019-02-18T19:48:01.499Z,65.60
2019-02-18T19:50:30.481Z,65.60
2019-02-18T19:52:59.698Z,65.60
2019-02-18T19:55:29.256Z,65.70
2019-02-18T19:57:58.501Z,65.80
2019-02-18T20:00:27.414Z,65.80
2019-02-18T20:02:56.334Z,65.90
2019-02-18T20:05:25.702Z,66.00
2019-02-18T20:07:54.742Z,66.00
2019-02-18T20:10:23.821Z,66.10
2019-02-18T20:12:56.450Z,66.10
2019-02-18T20:15:25.555Z,66.10
2019-02-18T20:17:54.711Z,66.20
2019-02-18T20:20:24.314Z,66.20
2019-02-18T20:22:53.372Z,66.30
2019-02-18T20:25:22.868Z,66.20
2019-02-18T20:27:51.814Z,66.20
2019-02-18T20:30:20.838Z,66.20
2019-02-18T20:32:49.984Z,66.10
2019-02-18T20:35:20.375Z,66.00
2019-02-18T20:37:49.468Z,66.00
2019-02-18T20:40:19.659Z,66.00
2019-02-18T20:42:48.772Z,65.90
2019-02-18T20:45:18.149Z,65.90
2019-02-18T20:47:47.697Z,65.90
2019-02-18T20:50:17.465Z,65.80
2019-02-18T20:52:48.204Z,65.70
2019-02-18T20:55:17.228Z,65.60
2019-02-18T20:57:46.245Z,65.60
2019-02-18T21:00:19.147Z,65.40
2019-02-18T21:02:48.195Z,65.30
2019-02-18T21:05:17.510Z,65.10
2019-02-18T21:07:46.592Z,65.00
2019-02-18T21:10:16.178Z,64.80
2019-02-18T21:12:45.245Z,64.80
2019-02-18T21:15:14.219Z,64.70
2019-02-18T21:17:43.231Z,64.50
2019-02-18T21:20:12.856Z,64.40
2019-02-18T21:22:42.541Z,64.20
2019-02-18T21:25:11.705Z,64.10
2019-02-18T21:27:40.693Z,64.00
2019-02-18T21:30:10.666Z,64.00
2019-02-18T21:32:40.025Z,63.90
2019-02-18T21:35:09.242Z,63.80
2019-02-18T21:37:38.200Z,63.60
2019-02-18T21:40:07.385Z,63.60
2019-02-18T21:42:36.311Z,63.50
2019-02-18T21:45:05.578Z,63.50
2019-02-18T21:47:34.470Z,63.50
2019-02-18T21:50:03.659Z,63.40
2019-02-18T21:52:32.614Z,63.30
2019-02-18T21:55:01.505Z,63.30
2019-02-18T21:57:30.569Z,63.20
2019-02-18T21:59:59.506Z,63.10
2019-02-18T22:02:28.734Z,63.10
2019-02-18T22:05:03.166Z,63.10
2019-02-18T22:07:32.485Z,63.10
2019-02-18T22:10:01.345Z,63.00
2019-02-18T22:12:30.386Z,63.00
2019-02-18T22:15:00.475Z,63.00
2019-02-18T22:17:29.391Z,63.00
2019-02-18T22:20:06.545Z,63.00
2019-02-18T22:22:35.806Z,63.00
2019-02-18T22:25:15.244Z,62.90
2019-02-18T22:27:45.377Z,63.70
2019-02-18T22:30:14.832Z,63.10
2019-02-18T22:32:44.341Z,62.90
2019-02-18T22:35:16.147Z,63.10
2019-02-18T22:37:47.094Z,63.10
2019-02-18T22:40:16.909Z,63.10
2019-02-18T22:42:46.528Z,63.10
2019-02-18T22:45:21.104Z,63.20
2019-02-18T22:47:52.770Z,63.20
2019-02-18T22:50:26.130Z,63.10
2019-02-18T22:52:55.334Z,63.40
2019-02-18T22:55:28.952Z,63.30
2019-02-18T22:57:58.323Z,63.30
2019-02-18T23:00:50.524Z,63.30
2019-02-18T23:03:20.035Z,63.40
2019-02-18T23:05:50.093Z,63.30
2019-02-18T23:08:19.571Z,63.40
2019-02-18T23:10:48.690Z,63.30
2019-02-18T23:13:20.251Z,63.30
2019-02-18T23:15:50.718Z,63.30
2019-02-18T23:18:20.094Z,63.30
2019-02-18T23:20:53.400Z,63.30
2019-02-18T23:23:25.466Z,63.20
2019-02-18T23:26:00.396Z,63.40
2019-02-18T23:28:29.849Z,63.40
2019-02-18T23:31:01.970Z,63.20
2019-02-18T23:33:35.899Z,63.60
2019-02-18T23:36:10.982Z,63.40
2019-02-18T23:38:40.182Z,63.20
2019-02-18T23:41:13.507Z,63.20
2019-02-18T23:43:42.608Z,63.20
2019-02-18T23:46:14.618Z,63.10
2019-02-18T23:48:43.657Z,63.10
2019-02-18T23:51:18.650Z,63.00
2019-02-18T23:53:48.181Z,62.90
2019-02-18T23:56:17.398Z,62.70
2019-02-18T23:58:46.842Z,62.80
